sensor_id;sensor_type;location;lat;lon;timestamp;P1;durP1;ratioP1;P2;durP2;ratioP2
57301;SDS011;43149;50.974;18.224;2023-02-28T00:00:11;27.70;;;14.00;;
57301;SDS011;43149;50.974;18.224;2023-02-28T00:09:57;23.40;;;11.80;;
57301;SDS011;43149;50.974;18.224;2023-02-28T00:19:43;42.60;;;14.40;;
57301;SDS011;43149;50.974;18.224;2023-02-28T00:29:26;40.20;;;13.20;;
57301;SDS011;43149;50.974;18.224;2023-02-28T00:39:14;79.00;;;17.60;;
57301;SDS011;43149;50.974;18.224;2023-02-28T00:48:57;102.90;;;19.80;;
57301;SDS011;43149;50.974;18.224;2023-02-28T00:58:40;24.40;;;7.40;;
57301;SDS011;43149;50.974;18.224;2023-02-28T01:08:23;16.20;;;6.80;;
57301;SDS011;43149;50.974;18.224;2023-02-28T01:18:14;27.40;;;6.20;;
57301;SDS011;43149;50.974;18.224;2023-02-28T01:27:59;8.80;;;5.00;;
57301;SDS011;43149;50.974;18.224;2023-02-28T01:37:44;17.90;;;6.40;;
57301;SDS011;43149;50.974;18.224;2023-02-28T01:47:50;12.10;;;5.60;;
57301;SDS011;43149;50.974;18.224;2023-02-28T01:57:40;6.30;;;4.10;;
57301;SDS011;43149;50.974;18.224;2023-02-28T02:07:35;7.10;;;5.00;;
57301;SDS011;43149;50.974;18.224;2023-02-28T02:17:38;11.70;;;5.20;;
57301;SDS011;43149;50.974;18.224;2023-02-28T02:38:28;4.30;;;4.10;;
57301;SDS011;43149;50.974;18.224;2023-02-28T02:48:52;10.50;;;6.30;;
57301;SDS011;43149;50.974;18.224;2023-02-28T02:58:42;14.40;;;7.80;;
57301;SDS011;43149;50.974;18.224;2023-02-28T03:08:36;17.30;;;7.90;;
57301;SDS011;43149;50.974;18.224;2023-02-28T03:39:59;22.50;;;11.30;;
57301;SDS011;43149;50.974;18.224;2023-02-28T03:50:03;26.30;;;11.40;;
57301;SDS011;43149;50.974;18.224;2023-02-28T04:10:03;20.70;;;9.10;;
57301;SDS011;43149;50.974;18.224;2023-02-28T04:19:47;87.60;;;28.10;;
57301;SDS011;43149;50.974;18.224;2023-02-28T04:29:32;91.60;;;31.10;;
57301;SDS011;43149;50.974;18.224;2023-02-28T04:39:20;83.50;;;29.00;;
57301;SDS011;43149;50.974;18.224;2023-02-28T04:49:05;63.00;;;26.10;;
57301;SDS011;43149;50.974;18.224;2023-02-28T04:58:48;140.30;;;42.50;;
57301;SDS011;43149;50.974;18.224;2023-02-28T05:08:43;144.10;;;42.00;;
57301;SDS011;43149;50.974;18.224;2023-02-28T05:18:35;70.00;;;23.70;;
57301;SDS011;43149;50.974;18.224;2023-02-28T05:28:20;48.70;;;17.40;;
57301;SDS011;43149;50.974;18.224;2023-02-28T05:38:04;16.10;;;11.20;;
57301;SDS011;43149;50.974;18.224;2023-02-28T05:47:46;26.80;;;14.00;;
57301;SDS011;43149;50.974;18.224;2023-02-28T05:57:30;45.50;;;21.40;;
57301;SDS011;43149;50.974;18.224;2023-02-28T06:07:12;84.70;;;24.60;;
57301;SDS011;43149;50.974;18.224;2023-02-28T06:16:57;42.10;;;18.40;;
57301;SDS011;43149;50.974;18.224;2023-02-28T06:26:46;14.30;;;7.50;;
57301;SDS011;43149;50.974;18.224;2023-02-28T06:34:09;144.00;;;58.80;;
57301;SDS011;43149;50.974;18.224;2023-02-28T06:43:56;35.20;;;19.50;;
57301;SDS011;43149;50.974;18.224;2023-02-28T06:53:45;42.80;;;18.20;;
57301;SDS011;43149;50.974;18.224;2023-02-28T07:03:31;58.80;;;22.00;;
57301;SDS011;43149;50.974;18.224;2023-02-28T07:13:24;62.10;;;20.70;;
57301;SDS011;43149;50.974;18.224;2023-02-28T07:23:11;23.80;;;14.90;;
57301;SDS011;43149;50.974;18.224;2023-02-28T07:32:54;10.90;;;8.20;;
57301;SDS011;43149;50.974;18.224;2023-02-28T07:42:41;10.70;;;8.00;;
57301;SDS011;43149;50.974;18.224;2023-02-28T07:52:29;8.10;;;5.30;;
57301;SDS011;43149;50.974;18.224;2023-02-28T08:02:13;5.80;;;5.20;;
57301;SDS011;43149;50.974;18.224;2023-02-28T08:12:07;6.20;;;4.70;;
57301;SDS011;43149;50.974;18.224;2023-02-28T08:21:50;13.20;;;5.70;;
57301;SDS011;43149;50.974;18.224;2023-02-28T08:31:33;15.40;;;6.30;;
57301;SDS011;43149;50.974;18.224;2023-02-28T08:41:22;12.20;;;5.50;;
57301;SDS011;43149;50.974;18.224;2023-02-28T08:51:07;6.00;;;3.90;;
57301;SDS011;43149;50.974;18.224;2023-02-28T09:01:10;6.60;;;4.50;;
57301;SDS011;43149;50.974;18.224;2023-02-28T09:11:03;19.50;;;5.40;;
57301;SDS011;43149;50.974;18.224;2023-02-28T09:20:50;7.50;;;3.40;;
57301;SDS011;43149;50.974;18.224;2023-02-28T09:30:46;8.30;;;6.10;;
57301;SDS011;43149;50.974;18.224;2023-02-28T09:40:37;16.20;;;6.60;;
57301;SDS011;43149;50.974;18.224;2023-02-28T10:00:21;11.80;;;6.60;;
57301;SDS011;43149;50.974;18.224;2023-02-28T10:20:41;7.20;;;4.60;;
57301;SDS011;43149;50.974;18.224;2023-02-28T10:37:57;10.30;;;5.30;;
57301;SDS011;43149;50.974;18.224;2023-02-28T10:47:53;11.80;;;6.80;;
57301;SDS011;43149;50.974;18.224;2023-02-28T10:57:50;10.80;;;6.10;;
57301;SDS011;43149;50.974;18.224;2023-02-28T11:28:05;22.40;;;8.20;;
57301;SDS011;43149;50.974;18.224;2023-02-28T11:38:13;20.50;;;9.20;;
57301;SDS011;43149;50.974;18.224;2023-02-28T11:48:54;18.60;;;2.30;;
57301;SDS011;43149;50.974;18.224;2023-02-28T12:31:10;17.90;;;12.70;;
57301;SDS011;43149;50.974;18.224;2023-02-28T12:41:06;7.10;;;5.40;;
57301;SDS011;43149;50.974;18.224;2023-02-28T12:51:11;69.90;;;21.90;;
57301;SDS011;43149;50.974;18.224;2023-02-28T13:11:51;4.70;;;3.60;;
57301;SDS011;43149;50.974;18.224;2023-02-28T13:21:49;22.30;;;10.90;;
57301;SDS011;43149;50.974;18.224;2023-02-28T13:42:22;11.20;;;7.90;;
57301;SDS011;43149;50.974;18.224;2023-02-28T14:13:56;49.70;;;14.50;;
57301;SDS011;43149;50.974;18.224;2023-02-28T14:23:58;89.90;;;28.60;;
57301;SDS011;43149;50.974;18.224;2023-02-28T14:34:43;38.90;;;18.40;;
57301;SDS011;43149;50.974;18.224;2023-02-28T14:45:19;37.40;;;10.50;;
57301;SDS011;43149;50.974;18.224;2023-02-28T14:55:14;103.70;;;37.60;;
57301;SDS011;43149;50.974;18.224;2023-02-28T15:05:24;21.70;;;12.00;;
57301;SDS011;43149;50.974;18.224;2023-02-28T15:25:40;33.20;;;16.50;;
57301;SDS011;43149;50.974;18.224;2023-02-28T15:35:44;38.40;;;16.10;;
57301;SDS011;43149;50.974;18.224;2023-02-28T15:56:19;51.10;;;16.80;;
57301;SDS011;43149;50.974;18.224;2023-02-28T16:16:41;35.10;;;16.40;;
57301;SDS011;43149;50.974;18.224;2023-02-28T16:26:25;18.60;;;10.10;;
57301;SDS011;43149;50.974;18.224;2023-02-28T16:36:15;517.60;;;157.40;;
57301;SDS011;43149;50.974;18.224;2023-02-28T16:46:14;260.10;;;75.30;;
57301;SDS011;43149;50.974;18.224;2023-02-28T16:56:03;103.10;;;40.00;;
57301;SDS011;43149;50.974;18.224;2023-02-28T17:05:54;60.70;;;21.40;;
57301;SDS011;43149;50.974;18.224;2023-02-28T17:15:38;36.10;;;11.20;;
57301;SDS011;43149;50.974;18.224;2023-02-28T17:25:23;71.70;;;30.70;;
57301;SDS011;43149;50.974;18.224;2023-02-28T17:35:09;68.00;;;27.50;;
57301;SDS011;43149;50.974;18.224;2023-02-28T17:44:55;47.10;;;16.40;;
57301;SDS011;43149;50.974;18.224;2023-02-28T17:54:39;70.20;;;29.30;;
57301;SDS011;43149;50.974;18.224;2023-02-28T18:04:28;81.70;;;40.50;;
57301;SDS011;43149;50.974;18.224;2023-02-28T18:14:18;59.50;;;31.00;;
57301;SDS011;43149;50.974;18.224;2023-02-28T18:24:12;52.70;;;26.90;;
57301;SDS011;43149;50.974;18.224;2023-02-28T18:33:57;161.70;;;70.70;;
57301;SDS011;43149;50.974;18.224;2023-02-28T18:43:45;74.80;;;40.60;;
57301;SDS011;43149;50.974;18.224;2023-02-28T18:53:56;51.80;;;27.60;;
57301;SDS011;43149;50.974;18.224;2023-02-28T19:03:43;54.90;;;29.20;;
57301;SDS011;43149;50.974;18.224;2023-02-28T19:13:42;40.60;;;23.80;;
57301;SDS011;43149;50.974;18.224;2023-02-28T19:23:26;83.90;;;43.00;;
57301;SDS011;43149;50.974;18.224;2023-02-28T19:33:13;89.30;;;37.10;;
57301;SDS011;43149;50.974;18.224;2023-02-28T19:43:03;94.90;;;41.60;;
57301;SDS011;43149;50.974;18.224;2023-02-28T19:52:49;92.50;;;39.60;;
57301;SDS011;43149;50.974;18.224;2023-02-28T20:02:36;69.90;;;39.00;;
57301;SDS011;43149;50.974;18.224;2023-02-28T20:12:22;89.50;;;43.10;;
57301;SDS011;43149;50.974;18.224;2023-02-28T20:22:07;72.90;;;40.80;;
57301;SDS011;43149;50.974;18.224;2023-02-28T20:31:54;85.20;;;36.80;;
57301;SDS011;43149;50.974;18.224;2023-02-28T20:41:40;121.00;;;52.60;;
57301;SDS011;43149;50.974;18.224;2023-02-28T20:51:25;115.90;;;47.70;;
57301;SDS011;43149;50.974;18.224;2023-02-28T21:01:18;80.60;;;43.60;;
57301;SDS011;43149;50.974;18.224;2023-02-28T21:11:26;89.20;;;46.20;;
57301;SDS011;43149;50.974;18.224;2023-02-28T21:21:15;98.10;;;51.30;;
57301;SDS011;43149;50.974;18.224;2023-02-28T21:31:12;90.70;;;45.20;;
57301;SDS011;43149;50.974;18.224;2023-02-28T21:48:24;120.60;;;46.60;;
57301;SDS011;43149;50.974;18.224;2023-02-28T21:58:12;100.20;;;52.20;;
57301;SDS011;43149;50.974;18.224;2023-02-28T22:07:58;109.70;;;51.80;;
57301;SDS011;43149;50.974;18.224;2023-02-28T22:17:42;119.60;;;55.20;;
57301;SDS011;43149;50.974;18.224;2023-02-28T22:27:27;131.40;;;57.90;;
57301;SDS011;43149;50.974;18.224;2023-02-28T22:37:15;139.50;;;64.20;;
57301;SDS011;43149;50.974;18.224;2023-02-28T22:47:02;191.10;;;72.50;;
57301;SDS011;43149;50.974;18.224;2023-02-28T22:56:46;136.10;;;62.60;;
57301;SDS011;43149;50.974;18.224;2023-02-28T23:06:32;149.90;;;58.50;;
57301;SDS011;43149;50.974;18.224;2023-02-28T23:16:24;158.70;;;55.40;;
57301;SDS011;43149;50.974;18.224;2023-02-28T23:26:10;139.70;;;59.10;;
57301;SDS011;43149;50.974;18.224;2023-02-28T23:35:56;193.80;;;73.90;;
57301;SDS011;43149;50.974;18.224;2023-02-28T23:45:39;154.00;;;67.70;;
57301;SDS011;43149;50.974;18.224;2023-02-28T23:55:28;128.90;;;59.70;;
